createdAt,value
2022-08-25T00:00:14.685Z,21.62
2022-08-25T00:03:01.843Z,21.57
2022-08-25T00:05:32.332Z,21.42
2022-08-25T00:08:02.940Z,21.30
2022-08-25T00:10:30.486Z,21.28
2022-08-25T00:12:57.944Z,21.23
2022-08-25T00:15:25.630Z,21.23
2022-08-25T00:17:52.996Z,21.34
2022-08-25T00:20:20.955Z,21.44
2022-08-25T00:22:49.434Z,21.48
2022-08-25T00:25:16.970Z,21.53
2022-08-25T00:27:44.734Z,21.54
2022-08-25T00:30:15.960Z,21.53
2022-08-25T00:32:44.436Z,21.51
2022-08-25T00:35:23.581Z,21.49
2022-08-25T00:37:50.799Z,21.41
2022-08-25T00:40:18.496Z,21.48
2022-08-25T00:42:46.767Z,21.55
2022-08-25T00:45:14.029Z,21.64
2022-08-25T00:47:41.553Z,21.70
2022-08-25T00:50:11.749Z,21.77
2022-08-25T00:52:45.824Z,21.82
2022-08-25T00:55:25.617Z,21.83
2022-08-25T00:58:16.058Z,21.86
2022-08-25T01:00:49.778Z,21.91
2022-08-25T01:03:19.265Z,21.91
2022-08-25T01:05:48.024Z,21.88
2022-08-25T01:08:19.678Z,21.84
2022-08-25T01:10:50.281Z,21.80
2022-08-25T01:13:29.155Z,21.81
2022-08-25T01:15:58.833Z,21.87
2022-08-25T01:18:28.487Z,21.90
2022-08-25T01:20:58.499Z,21.85
2022-08-25T01:23:27.092Z,21.81
2022-08-25T01:26:09.339Z,21.83
2022-08-25T01:28:37.622Z,21.84
2022-08-25T01:31:24.030Z,21.85
2022-08-25T01:33:51.971Z,21.80
2022-08-25T01:36:21.893Z,21.74
2022-08-25T01:38:49.660Z,21.68
2022-08-25T01:41:51.434Z,21.60
2022-08-25T01:44:19.355Z,21.55
2022-08-25T01:46:46.648Z,21.56
2022-08-25T01:49:13.869Z,21.52
2022-08-25T01:51:51.455Z,21.50
2022-08-25T01:54:18.878Z,21.46
2022-08-25T01:56:46.370Z,21.44
2022-08-25T01:59:21.637Z,21.44
2022-08-25T02:02:00.193Z,21.43
2022-08-25T02:04:32.360Z,21.41
2022-08-25T02:07:03.747Z,21.43
2022-08-25T02:09:30.985Z,21.44
2022-08-25T02:11:58.293Z,21.44
2022-08-25T02:14:26.378Z,21.39
2022-08-25T02:16:55.253Z,21.37
2022-08-25T02:19:24.891Z,21.35
2022-08-25T02:21:52.923Z,21.39
2022-08-25T02:24:20.902Z,21.42
2022-08-25T02:26:48.981Z,21.38
2022-08-25T02:29:17.334Z,21.32
2022-08-25T02:31:45.959Z,21.24
2022-08-25T02:34:14.343Z,21.19
2022-08-25T02:36:43.864Z,21.18
2022-08-25T02:39:13.101Z,21.21
2022-08-25T02:41:40.875Z,21.25
2022-08-25T02:44:09.215Z,21.28
2022-08-25T02:46:38.752Z,21.28
2022-08-25T02:49:07.713Z,21.22
2022-08-25T02:51:36.310Z,21.19
2022-08-25T02:54:06.227Z,21.17
2022-08-25T02:56:34.059Z,21.20
2022-08-25T02:59:02.980Z,21.23
2022-08-25T03:01:32.637Z,21.29
2022-08-25T03:04:02.123Z,21.34
2022-08-25T03:06:29.787Z,21.33
2022-08-25T03:08:57.500Z,21.32
2022-08-25T03:11:26.698Z,21.29
2022-08-25T03:13:54.703Z,21.31
2022-08-25T03:16:22.792Z,21.29
2022-08-25T03:18:55.819Z,21.28
2022-08-25T03:21:23.389Z,21.22
2022-08-25T03:23:51.045Z,21.22
2022-08-25T03:26:36.999Z,21.21
2022-08-25T03:29:07.673Z,21.26
2022-08-25T03:31:36.711Z,21.28
2022-08-25T03:34:04.668Z,21.27
2022-08-25T03:36:31.909Z,21.29
2022-08-25T03:39:00.483Z,21.30
2022-08-25T03:41:32.791Z,21.25
2022-08-25T03:44:02.239Z,21.25
2022-08-25T03:46:35.051Z,21.24
2022-08-25T03:49:06.547Z,21.18
2022-08-25T03:51:40.484Z,21.19
2022-08-25T03:54:10.586Z,21.22
2022-08-25T03:56:38.691Z,21.26
2022-08-25T03:59:09.152Z,21.21
2022-08-25T04:01:39.151Z,21.20
2022-08-25T04:04:09.477Z,21.22
2022-08-25T04:06:38.679Z,21.30
2022-08-25T04:09:06.681Z,21.37
2022-08-25T04:11:34.455Z,21.41
2022-08-25T04:14:02.715Z,21.39
2022-08-25T04:16:33.933Z,21.43
2022-08-25T04:19:06.213Z,21.52
2022-08-25T04:21:33.779Z,21.62
2022-08-25T04:24:00.977Z,21.66
2022-08-25T04:26:33.719Z,21.64
2022-08-25T04:29:04.031Z,21.66
2022-08-25T04:31:32.368Z,21.68
2022-08-25T04:34:04.227Z,21.75
2022-08-25T04:36:42.285Z,21.81
2022-08-25T04:39:09.559Z,21.91
2022-08-25T04:41:38.934Z,21.99
2022-08-25T04:44:07.207Z,22.07
2022-08-25T04:46:35.695Z,22.20
2022-08-25T04:49:04.419Z,22.27
2022-08-25T04:51:36.981Z,22.43
2022-08-25T04:54:10.057Z,22.52
2022-08-25T04:56:40.761Z,22.62
2022-08-25T04:59:12.611Z,22.69
2022-08-25T05:01:42.776Z,22.73
2022-08-25T05:04:27.842Z,22.75
2022-08-25T05:06:58.514Z,22.87
2022-08-25T05:09:26.859Z,22.95
2022-08-25T05:11:54.938Z,23.03
2022-08-25T05:14:26.380Z,23.07
2022-08-25T05:16:55.972Z,23.11
2022-08-25T05:19:24.586Z,23.18
2022-08-25T05:21:52.787Z,23.27
2022-08-25T05:24:22.288Z,23.35
2022-08-25T05:26:50.066Z,23.40
2022-08-25T05:29:17.611Z,23.45
2022-08-25T05:31:50.053Z,23.48
2022-08-25T05:34:19.717Z,23.55
2022-08-25T05:36:48.652Z,23.58
2022-08-25T05:39:16.335Z,23.65
2022-08-25T05:41:44.403Z,23.66
2022-08-25T05:44:12.953Z,23.74
2022-08-25T05:46:40.195Z,23.81
2022-08-25T05:49:07.699Z,23.89
2022-08-25T05:51:34.859Z,23.98
2022-08-25T05:54:02.129Z,24.09
2022-08-25T05:56:30.141Z,24.10
2022-08-25T05:58:57.342Z,24.22
2022-08-25T06:01:48.460Z,24.30
2022-08-25T06:04:18.145Z,24.39
2022-08-25T06:06:45.359Z,24.50
2022-08-25T06:09:12.720Z,24.60
2022-08-25T06:11:41.422Z,24.63
2022-08-25T06:14:10.889Z,24.66
2022-08-25T06:16:40.312Z,24.75
2022-08-25T06:19:10.297Z,24.85
2022-08-25T06:21:40.964Z,24.99
2022-08-25T06:24:15.180Z,25.17
2022-08-25T06:26:44.260Z,25.32
2022-08-25T06:29:14.189Z,25.42
2022-08-25T06:31:42.685Z,25.75
2022-08-25T06:34:11.849Z,26.61
2022-08-25T06:36:40.605Z,27.34
2022-08-25T06:39:09.191Z,27.78
2022-08-25T06:41:38.843Z,28.73
2022-08-25T06:44:06.793Z,29.72
2022-08-25T06:46:36.132Z,30.75
2022-08-25T06:49:06.736Z,31.61
2022-08-25T06:51:38.238Z,32.52
2022-08-25T06:54:08.153Z,33.41
2022-08-25T06:56:36.783Z,34.31
2022-08-25T06:59:07.322Z,35.08
2022-08-25T07:01:35.270Z,35.93
2022-08-25T07:04:10.325Z,36.59
2022-08-25T07:06:39.678Z,37.46
2022-08-25T07:09:10.873Z,38.19
2022-08-25T07:11:40.768Z,37.82
2022-08-25T07:14:11.850Z,35.89
2022-08-25T07:16:41.762Z,34.05
2022-08-25T07:19:15.070Z,33.17
2022-08-25T07:21:45.908Z,32.66
2022-08-25T07:24:14.945Z,32.34
2022-08-25T07:26:44.354Z,32.11
2022-08-25T07:29:15.920Z,31.91
2022-08-25T07:31:43.575Z,31.90
2022-08-25T07:34:29.744Z,31.94
2022-08-25T07:36:58.289Z,31.84
2022-08-25T07:39:29.013Z,31.90
2022-08-25T07:41:56.848Z,31.99
2022-08-25T07:44:27.983Z,32.32
2022-08-25T07:46:56.470Z,32.75
2022-08-25T07:49:26.582Z,33.24
2022-08-25T07:52:06.497Z,33.99
2022-08-25T07:54:37.993Z,34.94
2022-08-25T07:57:08.701Z,36.18
2022-08-25T07:59:41.432Z,37.70
2022-08-25T08:02:17.945Z,39.42
2022-08-25T08:04:53.860Z,41.28
2022-08-25T08:07:41.864Z,43.10
2022-08-25T08:13:07.007Z,46.55
2022-08-25T08:15:36.192Z,47.54
2022-08-25T08:18:05.345Z,48.89
2022-08-25T08:20:42.275Z,49.80
2022-08-25T08:23:12.067Z,51.19
2022-08-25T08:25:39.362Z,51.97
2022-08-25T08:28:07.071Z,53.07
2022-08-25T08:30:36.739Z,54.03
2022-08-25T08:33:10.207Z,54.96
2022-08-25T08:35:41.604Z,55.92
2022-08-25T08:38:16.123Z,56.45
2022-08-25T08:42:11.592Z,57.28
2022-08-25T08:44:45.403Z,57.60
2022-08-25T08:48:01.073Z,58.41
2022-08-25T08:50:54.711Z,59.24
2022-08-25T08:53:46.481Z,59.40
2022-08-25T08:56:57.601Z,59.62
2022-08-25T08:59:35.356Z,59.35
2022-08-25T09:02:06.178Z,60.39
2022-08-25T09:04:59.487Z,61.03
2022-08-25T09:07:41.274Z,61.37
2022-08-25T09:10:11.137Z,61.62
2022-08-25T09:13:19.526Z,61.90
2022-08-25T09:16:38.144Z,62.67
2022-08-25T09:20:02.158Z,64.00
2022-08-25T09:22:47.836Z,64.98
2022-08-25T09:25:52.374Z,64.46
2022-08-25T09:28:33.873Z,63.95
2022-08-25T09:31:29.612Z,65.25
2022-08-25T09:34:02.298Z,66.56
2022-08-25T09:36:35.450Z,67.01
2022-08-25T09:39:06.860Z,67.66
2022-08-25T09:41:53.085Z,68.03
2022-08-25T09:44:28.138Z,67.82
2022-08-25T09:47:28.024Z,67.96
2022-08-25T09:50:04.466Z,68.09
2022-08-25T09:52:41.367Z,69.06
2022-08-25T09:55:09.405Z,69.23
2022-08-25T09:57:43.433Z,69.55
2022-08-25T10:00:35.103Z,68.97
2022-08-25T10:03:24.938Z,69.18
2022-08-25T10:05:56.899Z,69.62
2022-08-25T10:08:55.668Z,69.94
2022-08-25T10:11:47.688Z,70.36
2022-08-25T10:14:36.449Z,69.05
2022-08-25T10:17:31.490Z,68.83
2022-08-25T10:20:35.147Z,69.92
2022-08-25T10:23:15.212Z,70.07
2022-08-25T10:25:59.433Z,70.48
2022-08-25T10:29:05.300Z,69.99
2022-08-25T10:31:56.651Z,69.76
2022-08-25T10:34:53.946Z,70.38
2022-08-25T10:38:00.878Z,68.59
2022-08-25T10:40:46.276Z,70.16
2022-08-25T10:43:49.844Z,70.21
2022-08-25T10:47:05.948Z,71.67
2022-08-25T10:49:49.963Z,71.79
2022-08-25T10:52:58.233Z,70.41
2022-08-25T10:55:50.448Z,72.12
2022-08-25T10:58:35.514Z,69.61
2022-08-25T11:01:15.774Z,69.88
2022-08-25T11:04:05.107Z,71.94
2022-08-25T11:06:52.645Z,72.33
2022-08-25T11:09:30.846Z,72.36
2022-08-25T11:12:19.058Z,72.63
2022-08-25T11:14:54.326Z,72.76
2022-08-25T11:17:52.759Z,72.46
2022-08-25T11:20:59.904Z,73.13
2022-08-25T11:23:49.479Z,73.24
2022-08-25T11:26:31.905Z,73.53
2022-08-25T11:29:16.627Z,73.05
2022-08-25T11:31:53.564Z,73.02
2022-08-25T11:34:22.973Z,73.47
2022-08-25T11:37:01.332Z,72.15
2022-08-25T11:40:08.750Z,72.21
2022-08-25T11:42:43.046Z,72.27
2022-08-25T11:45:43.750Z,72.27
2022-08-25T11:48:42.992Z,71.78
2022-08-25T11:51:39.834Z,71.38
2022-08-25T11:54:36.538Z,71.48
2022-08-25T11:57:13.165Z,71.36
2022-08-25T11:59:53.276Z,70.41
2022-08-25T12:02:47.680Z,69.60
2022-08-25T12:05:22.113Z,70.47
2022-08-25T12:08:26.688Z,68.37
2022-08-25T12:11:10.910Z,68.18
2022-08-25T12:13:50.941Z,68.58
2022-08-25T12:17:00.429Z,69.70
2022-08-25T12:19:36.947Z,70.35
2022-08-25T12:22:05.729Z,69.86
2022-08-25T12:24:48.140Z,69.38
2022-08-25T12:27:34.305Z,68.93
2022-08-25T12:30:29.205Z,68.27
2022-08-25T12:33:37.269Z,64.70
2022-08-25T12:36:11.462Z,64.94
2022-08-25T12:38:52.427Z,63.42
2022-08-25T12:41:33.568Z,61.54
2022-08-25T12:44:41.433Z,61.61
2022-08-25T12:47:27.246Z,60.96
2022-08-25T12:50:35.235Z,59.35
2022-08-25T12:53:35.217Z,57.38
2022-08-25T12:56:07.949Z,56.07
2022-08-25T12:59:03.762Z,54.65
2022-08-25T13:02:03.149Z,52.33
2022-08-25T13:04:52.411Z,50.69
2022-08-25T13:07:35.754Z,48.52
2022-08-25T13:10:44.112Z,48.00
2022-08-25T13:13:31.572Z,47.21
2022-08-25T13:16:06.641Z,47.02
2022-08-25T13:18:39.809Z,46.58
2022-08-25T13:21:07.376Z,45.58
2022-08-25T13:23:41.843Z,45.24
2022-08-25T13:26:22.480Z,45.45
2022-08-25T13:29:10.925Z,47.62
2022-08-25T13:31:55.721Z,49.91
2022-08-25T13:34:34.980Z,50.82
2022-08-25T13:37:30.545Z,52.50
2022-08-25T13:40:18.797Z,53.19
2022-08-25T13:42:56.104Z,54.35
2022-08-25T13:45:31.780Z,55.96
2022-08-25T13:47:59.600Z,56.88
2022-08-25T13:50:27.225Z,57.81
2022-08-25T13:53:11.393Z,58.23
2022-08-25T13:55:53.868Z,58.68
2022-08-25T13:58:39.321Z,59.00
2022-08-25T14:01:48.994Z,58.91
2022-08-25T14:04:51.190Z,58.12
2022-08-25T14:07:22.784Z,58.20
2022-08-25T14:10:34.834Z,57.63
2022-08-25T14:13:36.474Z,57.65
2022-08-25T14:16:38.797Z,57.45
2022-08-25T14:19:20.255Z,57.04
2022-08-25T14:21:49.626Z,56.27
2022-08-25T14:24:23.790Z,55.10
2022-08-25T14:26:54.043Z,52.76
2022-08-25T14:29:22.496Z,50.35
2022-08-25T14:31:52.505Z,48.42
2022-08-25T14:34:26.143Z,46.89
2022-08-25T14:36:57.626Z,45.57
2022-08-25T14:39:29.416Z,44.55
2022-08-25T14:41:58.403Z,43.48
2022-08-25T14:44:25.616Z,42.71
2022-08-25T14:47:00.318Z,42.07
2022-08-25T14:49:36.553Z,41.58
2022-08-25T14:52:22.708Z,41.17
2022-08-25T14:54:50.756Z,40.81
2022-08-25T14:57:18.464Z,40.52
2022-08-25T14:59:46.332Z,40.21
2022-08-25T15:02:21.000Z,39.69
2022-08-25T15:04:55.680Z,39.11
2022-08-25T15:07:43.104Z,38.87
2022-08-25T15:10:13.602Z,38.44
2022-08-25T15:12:47.841Z,38.25
2022-08-25T15:15:16.752Z,38.00
2022-08-25T15:17:47.327Z,37.75
2022-08-25T15:20:16.816Z,37.62
2022-08-25T15:22:45.516Z,37.31
2022-08-25T15:25:13.019Z,37.13
2022-08-25T15:27:40.969Z,36.67
2022-08-25T15:30:10.062Z,36.64
2022-08-25T15:32:41.195Z,36.66
2022-08-25T15:35:11.867Z,36.70
2022-08-25T15:37:43.037Z,36.55
2022-08-25T15:40:11.007Z,36.42
2022-08-25T15:42:39.414Z,36.24
2022-08-25T15:45:11.575Z,36.14
2022-08-25T15:47:38.958Z,36.02
2022-08-25T15:50:16.252Z,35.78
2022-08-25T15:52:46.401Z,35.73
2022-08-25T15:55:17.242Z,35.38
2022-08-25T15:57:44.969Z,35.16
2022-08-25T16:00:16.776Z,35.09
2022-08-25T16:02:46.240Z,34.84
2022-08-25T16:05:16.422Z,34.79
2022-08-25T16:07:46.199Z,34.62
2022-08-25T16:10:19.716Z,34.58
2022-08-25T16:12:47.543Z,34.48
2022-08-25T16:15:16.136Z,34.38
2022-08-25T16:17:45.966Z,34.32
2022-08-25T16:20:17.266Z,34.17
2022-08-25T16:22:45.526Z,33.98
2022-08-25T16:25:14.123Z,33.89
2022-08-25T16:27:41.547Z,33.78
2022-08-25T16:30:17.570Z,33.74
2022-08-25T16:32:46.768Z,33.58
2022-08-25T16:35:14.521Z,33.46
2022-08-25T16:37:41.810Z,33.36
2022-08-25T16:40:14.765Z,33.22
2022-08-25T16:42:42.661Z,33.10
2022-08-25T16:45:10.450Z,32.98
2022-08-25T16:47:38.205Z,32.87
2022-08-25T16:50:10.818Z,32.72
2022-08-25T16:52:58.302Z,32.51
2022-08-25T16:55:38.913Z,32.29
2022-08-25T16:58:13.377Z,32.08
2022-08-25T17:00:41.348Z,31.94
2022-08-25T17:03:11.218Z,31.81
2022-08-25T17:05:43.351Z,31.67
2022-08-25T17:08:30.581Z,31.58
2022-08-25T17:11:14.202Z,31.37
2022-08-25T17:13:50.097Z,31.16
2022-08-25T17:16:19.821Z,31.03
2022-08-25T17:18:48.583Z,30.86
2022-08-25T17:21:24.569Z,30.74
2022-08-25T17:23:54.354Z,30.52
2022-08-25T17:26:28.079Z,30.34
2022-08-25T17:29:01.295Z,30.18
2022-08-25T17:31:30.108Z,30.02
2022-08-25T17:33:58.707Z,29.83
2022-08-25T17:36:27.086Z,29.78
2022-08-25T17:38:56.751Z,29.70
2022-08-25T17:41:25.132Z,29.55
2022-08-25T17:43:52.370Z,29.36
2022-08-25T17:46:21.582Z,29.24
2022-08-25T17:48:49.088Z,29.18
2022-08-25T17:51:16.505Z,29.10
2022-08-25T17:53:44.947Z,29.04
2022-08-25T17:56:18.567Z,28.97
2022-08-25T17:58:47.784Z,28.98
2022-08-25T18:01:28.746Z,28.91
2022-08-25T18:03:57.494Z,28.93
2022-08-25T18:06:26.789Z,28.88
2022-08-25T18:08:58.724Z,28.86
2022-08-25T18:11:28.858Z,28.77
2022-08-25T18:13:58.264Z,28.56
2022-08-25T18:16:27.025Z,28.49
2022-08-25T18:18:55.813Z,28.35
2022-08-25T18:21:25.630Z,28.21
2022-08-25T18:23:58.883Z,28.05
2022-08-25T18:26:27.145Z,27.90
2022-08-25T18:28:54.611Z,27.77
2022-08-25T18:31:22.276Z,27.57
2022-08-25T18:33:51.010Z,27.48
2022-08-25T18:36:22.959Z,27.38
2022-08-25T18:39:09.597Z,27.25
2022-08-25T18:41:42.558Z,27.10
2022-08-25T18:44:11.191Z,27.10
2022-08-25T18:46:40.297Z,27.11
2022-08-25T18:49:08.530Z,27.07
2022-08-25T18:51:36.531Z,26.99
2022-08-25T18:54:05.357Z,26.93
2022-08-25T18:56:34.694Z,26.82
2022-08-25T18:59:02.722Z,26.78
2022-08-25T19:01:30.484Z,26.81
2022-08-25T19:03:57.988Z,26.78
2022-08-25T19:06:25.716Z,26.67
2022-08-25T19:08:53.543Z,26.68
2022-08-25T19:11:22.251Z,26.71
2022-08-25T19:13:51.576Z,26.65
2022-08-25T19:16:40.968Z,26.56
2022-08-25T19:19:13.215Z,26.58
2022-08-25T19:21:41.943Z,26.58
2022-08-25T19:24:12.267Z,26.59
2022-08-25T19:26:40.552Z,26.58
2022-08-25T19:29:17.501Z,26.57
2022-08-25T19:31:47.935Z,26.56
2022-08-25T19:34:28.220Z,26.47
2022-08-25T19:37:01.292Z,26.45
2022-08-25T19:39:30.549Z,26.41
2022-08-25T19:41:58.211Z,26.35
2022-08-25T19:44:28.235Z,26.28
2022-08-25T19:46:57.158Z,26.23
2022-08-25T19:49:31.754Z,26.17
2022-08-25T19:52:03.165Z,26.17
2022-08-25T19:54:44.614Z,26.27
2022-08-25T19:57:20.774Z,26.32
2022-08-25T19:59:56.196Z,26.25
2022-08-25T20:02:28.322Z,26.20
2022-08-25T20:05:00.007Z,26.15
2022-08-25T20:07:31.076Z,26.09
2022-08-25T20:10:00.457Z,26.01
2022-08-25T20:12:28.712Z,25.97
2022-08-25T20:14:56.759Z,25.95
2022-08-25T20:17:26.169Z,25.91
2022-08-25T20:19:59.881Z,25.87
2022-08-25T20:22:31.728Z,25.83
2022-08-25T20:25:07.348Z,25.77
2022-08-25T20:27:52.402Z,25.66
2022-08-25T20:30:28.992Z,25.61
2022-08-25T20:32:58.238Z,25.54
2022-08-25T20:35:29.222Z,25.54
2022-08-25T20:37:59.207Z,25.56
2022-08-25T20:40:30.490Z,25.59
2022-08-25T20:43:03.402Z,25.59
2022-08-25T20:45:31.346Z,25.55
2022-08-25T20:47:58.783Z,25.46
2022-08-25T20:50:27.907Z,25.45
2022-08-25T20:52:56.871Z,25.33
2022-08-25T20:55:24.666Z,25.29
2022-08-25T20:57:53.932Z,25.14
2022-08-25T21:00:23.454Z,25.01
2022-08-25T21:02:53.006Z,24.96
2022-08-25T21:05:20.415Z,24.97
2022-08-25T21:07:48.951Z,24.98
2022-08-25T21:10:16.923Z,24.95
2022-08-25T21:12:45.309Z,24.92
2022-08-25T21:15:18.107Z,24.81
2022-08-25T21:17:50.850Z,24.72
2022-08-25T21:20:18.479Z,24.74
2022-08-25T21:22:45.753Z,24.74
2022-08-25T21:25:13.673Z,24.72
2022-08-25T21:27:41.388Z,24.74
2022-08-25T21:30:12.384Z,24.76
2022-08-25T21:32:39.743Z,24.76
2022-08-25T21:35:23.134Z,24.73
2022-08-25T21:37:53.357Z,24.70
2022-08-25T21:40:23.036Z,24.68
2022-08-25T21:42:52.399Z,24.60
2022-08-25T21:45:20.961Z,24.49
2022-08-25T21:47:49.289Z,24.44
2022-08-25T21:50:16.858Z,24.40
2022-08-25T21:52:44.413Z,24.45
2022-08-25T21:55:15.774Z,24.41
2022-08-25T21:57:44.157Z,24.39
2022-08-25T22:00:13.637Z,24.37
2022-08-25T22:02:43.858Z,24.37
2022-08-25T22:05:12.251Z,24.40
2022-08-25T22:07:43.924Z,24.41
2022-08-25T22:10:16.768Z,24.41
2022-08-25T22:12:47.377Z,24.33
2022-08-25T22:15:17.837Z,24.30
2022-08-25T22:17:48.111Z,24.29
2022-08-25T22:20:18.220Z,24.29
2022-08-25T22:22:45.772Z,24.28
2022-08-25T22:25:14.152Z,24.23
2022-08-25T22:27:41.981Z,24.09
2022-08-25T22:30:10.767Z,23.91
2022-08-25T22:32:38.217Z,23.84
2022-08-25T22:35:08.086Z,23.71
2022-08-25T22:37:36.933Z,23.67
2022-08-25T22:40:05.845Z,23.60
2022-08-25T22:42:33.362Z,23.54
2022-08-25T22:45:01.286Z,23.52
2022-08-25T22:47:28.725Z,23.55
2022-08-25T22:49:58.597Z,23.42
2022-08-25T22:52:33.736Z,23.31
2022-08-25T22:55:03.169Z,23.35
2022-08-25T22:57:30.698Z,23.38
2022-08-25T22:59:59.332Z,23.41
2022-08-25T23:02:30.306Z,23.28
2022-08-25T23:04:57.978Z,23.19
2022-08-25T23:07:29.311Z,23.15
2022-08-25T23:10:02.651Z,23.16
2022-08-25T23:12:30.756Z,23.20
2022-08-25T23:14:58.105Z,23.20
2022-08-25T23:17:25.615Z,23.27
2022-08-25T23:19:53.042Z,23.27
2022-08-25T23:22:20.311Z,23.18
2022-08-25T23:24:53.471Z,23.04
2022-08-25T23:27:22.009Z,22.94
2022-08-25T23:29:51.050Z,22.90
2022-08-25T23:32:18.865Z,22.86
2022-08-25T23:34:47.191Z,22.90
2022-08-25T23:37:18.379Z,22.91
2022-08-25T23:39:49.856Z,22.95
2022-08-25T23:42:19.844Z,22.97
2022-08-25T23:44:49.357Z,22.96
2022-08-25T23:47:18.473Z,22.82
2022-08-25T23:49:46.265Z,22.74
2022-08-25T23:52:17.336Z,22.70
2022-08-25T23:54:46.285Z,22.70
2022-08-25T23:57:13.605Z,22.65
2022-08-25T23:59:42.304Z,22.58
